Time;durP1;ratioP1;P1;durP2;ratioP2;P2;SDS_P1;SDS_P2;PMS_P1;PMS_P2;Temp;Humidity;BMP_temperature;BMP_pressure;BME280_temperature;BME280_humidity;BME280_pressure;Samples;Min_cycle;Max_cycle;Signal;HPM_P1;HPM_P2
2021/04/12 00:00:31;;;;;;;0.70;0.70;;;;;;;;;;4875666;29;20236;-94
2021/04/12 00:03:03;;;;;;;0.70;0.70;;;;;;;;;;4865324;28;20241;-94
2021/04/12 00:05:39;;;;;;;0.80;0.70;;;;;;;;;;4859528;28;20234;-91
2021/04/12 00:08:15;;;;;;;0.60;0.60;;;;;;;;;;4865946;29;20225;-93
2021/04/12 00:10:51;;;;;;;0.73;0.73;;;;;;;;;;4876917;28;20238;-93
2021/04/12 00:13:24;;;;;;;0.47;0.47;;;;;;;;;;4879848;28;20218;-92
2021/04/12 00:15:55;;;;;;;0.50;0.50;;;;;;;;;;4871788;28;20231;-92
2021/04/12 00:18:30;;;;;;;0.67;0.40;;;;;;;;;;4878507;28;20218;-91
2021/04/12 00:20:59;;;;;;;0.40;0.40;;;;;;;;;;4897604;28;20219;-92
2021/04/12 00:23:31;;;;;;;0.40;0.40;;;;;;;;;;4871545;28;20243;-92
2021/04/12 00:26:05;;;;;;;0.50;0.43;;;;;;;;;;4915686;28;20218;-93
2021/04/12 00:28:37;;;;;;;0.50;0.50;;;;;;;;;;4877427;28;20220;-92
2021/04/12 00:31:11;;;;;;;0.80;0.50;;;;;;;;;;4909842;28;20222;-94
2021/04/12 00:33:43;;;;;;;0.40;0.40;;;;;;;;;;4854560;28;20208;-92
2021/04/12 00:36:16;;;;;;;0.40;0.40;;;;;;;;;;4882563;28;20232;-94
2021/04/12 00:38:51;;;;;;;0.50;0.50;;;;;;;;;;4875819;28;20248;-95
2021/04/12 00:41:32;;;;;;;0.40;0.40;;;;;;;;;;4878314;29;20234;-92
2021/04/12 00:44:06;;;;;;;0.57;0.50;;;;;;;;;;4864398;28;20244;-93
2021/04/12 00:46:44;;;;;;;0.37;0.37;;;;;;;;;;4890471;28;20223;-91
2021/04/12 00:49:24;;;;;;;0.47;0.40;;;;;;;;;;4889840;28;20580;-92
2021/04/12 00:51:59;;;;;;;0.30;0.30;;;;;;;;;;4901078;29;20244;-91
2021/04/12 00:54:52;;;;;;;0.40;0.40;;;;;;;;;;4899195;28;20241;-93
2021/04/12 00:57:35;;;;;;;0.30;0.30;;;;;;;;;;4866644;28;20278;-91
2021/04/12 01:00:10;;;;;;;0.40;0.40;;;;;;;;;;4863626;28;20241;-92
2021/04/12 01:02:53;;;;;;;0.50;0.50;;;;;;;;;;4904370;28;20218;-92
2021/04/12 01:05:53;;;;;;;0.93;0.50;;;;;;;;;;4901877;28;20222;-92
2021/04/12 01:08:54;;;;;;;0.37;0.37;;;;;;;;;;4885570;28;20233;-91
2021/04/12 01:11:46;;;;;;;0.70;0.50;;;;;;;;;;4849981;28;20231;-93
2021/04/12 01:14:34;;;;;;;0.40;0.40;;;;;;;;;;4876139;28;20214;-90
2021/04/12 01:17:14;;;;;;;0.40;0.40;;;;;;;;;;4879195;28;20226;-92
2021/04/12 01:20:19;;;;;;;0.40;0.40;;;;;;;;;;4881671;28;20238;-92
2021/04/12 01:23:21;;;;;;;0.40;0.40;;;;;;;;;;4871396;28;20248;-89
2021/04/12 01:26:30;;;;;;;0.50;0.50;;;;;;;;;;4872826;28;20242;-90
2021/04/12 01:29:43;;;;;;;0.43;0.40;;;;;;;;;;4882778;28;20222;-92
2021/04/12 01:32:29;;;;;;;0.63;0.40;;;;;;;;;;4888877;28;20238;-91
2021/04/12 01:35:10;;;;;;;0.83;0.50;;;;;;;;;;4875912;28;20210;-91
2021/04/12 01:37:46;;;;;;;0.60;0.50;;;;;;;;;;4894047;28;20222;-92
2021/04/12 01:40:25;;;;;;;0.40;0.40;;;;;;;;;;4882090;28;20241;-91
2021/04/12 01:43:13;;;;;;;0.47;0.47;;;;;;;;;;4878251;28;20216;-89
2021/04/12 01:45:48;;;;;;;0.50;0.50;;;;;;;;;;4896196;28;20218;-92
2021/04/12 01:48:40;;;;;;;0.50;0.50;;;;;;;;;;4871997;28;20234;-91
2021/04/12 01:51:25;;;;;;;0.40;0.40;;;;;;;;;;4869445;28;20226;-92
2021/04/12 01:54:30;;;;;;;0.50;0.50;;;;;;;;;;4890353;28;20237;-92
2021/04/12 01:57:37;;;;;;;0.60;0.60;;;;;;;;;;4846087;28;20205;-91
2021/04/12 02:00:35;;;;;;;0.50;0.50;;;;;;;;;;4891597;28;20236;-93
2021/04/12 02:03:14;;;;;;;0.50;0.50;;;;;;;;;;4879892;28;20219;-92
2021/04/12 02:06:03;;;;;;;1.27;0.60;;;;;;;;;;4867580;28;20234;-93
2021/04/12 02:08:37;;;;;;;0.50;0.50;;;;;;;;;;4897010;28;20210;-91
2021/04/12 02:11:13;;;;;;;0.93;0.60;;;;;;;;;;4879699;28;20241;-90
2021/04/12 02:14:23;;;;;;;1.17;0.93;;;;;;;;;;4875924;28;20228;-88
2021/04/12 02:16:59;;;;;;;1.37;0.70;;;;;;;;;;4906297;28;20218;-90
2021/04/12 02:19:50;;;;;;;0.60;0.60;;;;;;;;;;4893376;28;20213;-89
2021/04/12 02:22:44;;;;;;;0.40;0.40;;;;;;;;;;4879545;28;20221;-89
2021/04/12 02:25:18;;;;;;;0.47;0.47;;;;;;;;;;4876955;28;20215;-90
2021/04/12 02:27:52;;;;;;;0.50;0.50;;;;;;;;;;4879179;28;20224;-92
2021/04/12 02:30:25;;;;;;;0.60;0.60;;;;;;;;;;4889428;28;20233;-92
2021/04/12 02:33:02;;;;;;;0.60;0.60;;;;;;;;;;4916904;28;20554;-94
2021/04/12 02:35:45;;;;;;;0.50;0.50;;;;;;;;;;4882827;28;20194;-93
2021/04/12 02:38:25;;;;;;;0.60;0.50;;;;;;;;;;4874444;28;20213;-92
2021/04/12 02:41:08;;;;;;;0.50;0.50;;;;;;;;;;4864658;28;20198;-89
2021/04/12 02:43:48;;;;;;;0.50;0.50;;;;;;;;;;4890728;28;20245;-94
2021/04/12 02:46:23;;;;;;;0.50;0.50;;;;;;;;;;4876621;28;20228;-93
2021/04/12 02:48:59;;;;;;;0.50;0.50;;;;;;;;;;4879153;28;20204;-89
2021/04/12 02:51:35;;;;;;;0.83;0.70;;;;;;;;;;4866966;28;20212;-92
2021/04/12 02:54:21;;;;;;;0.70;0.70;;;;;;;;;;4879366;28;20255;-94
2021/04/12 02:57:08;;;;;;;1.47;1.20;;;;;;;;;;4859102;28;20207;-94
2021/04/12 02:59:59;;;;;;;1.70;1.57;;;;;;;;;;4878012;28;20213;-95
2021/04/12 03:02:44;;;;;;;2.10;1.90;;;;;;;;;;4866794;28;20509;-90
2021/04/12 03:05:24;;;;;;;2.93;2.63;;;;;;;;;;4875118;28;20225;-91
2021/04/12 03:08:08;;;;;;;3.63;2.60;;;;;;;;;;4879720;28;20201;-92
2021/04/12 03:10:53;;;;;;;4.57;3.07;;;;;;;;;;4894058;28;20197;-93
2021/04/12 03:13:38;;;;;;;3.20;2.90;;;;;;;;;;4871349;28;20226;-93
2021/04/12 03:16:47;;;;;;;3.63;3.33;;;;;;;;;;4909941;28;20226;-93
2021/04/12 03:19:27;;;;;;;3.40;3.10;;;;;;;;;;4884260;28;20193;-89
2021/04/12 03:22:37;;;;;;;3.10;2.80;;;;;;;;;;4881054;28;20196;-94
2021/04/12 03:25:34;;;;;;;2.77;2.57;;;;;;;;;;4868971;28;20226;-90
2021/04/12 03:28:23;;;;;;;2.23;2.03;;;;;;;;;;4867070;28;20197;-93
2021/04/12 03:31:03;;;;;;;2.40;2.17;;;;;;;;;;4870777;28;20210;-92
2021/04/12 03:33:35;;;;;;;2.10;1.90;;;;;;;;;;4894281;28;20219;-90
2021/04/12 03:36:23;;;;;;;1.83;1.70;;;;;;;;;;4880593;28;20218;-90
2021/04/12 03:39:01;;;;;;;1.30;1.20;;;;;;;;;;4865982;28;20222;-92
2021/04/12 03:41:59;;;;;;;1.30;1.17;;;;;;;;;;4886413;28;20209;-93
2021/04/12 03:44:34;;;;;;;1.47;1.33;;;;;;;;;;4881700;28;20239;-91
2021/04/12 03:47:20;;;;;;;1.40;1.20;;;;;;;;;;4860273;28;20216;-94
2021/04/12 03:50:23;;;;;;;0.87;0.87;;;;;;;;;;4881610;28;20189;-93
2021/04/12 03:53:12;;;;;;;1.20;0.93;;;;;;;;;;4880521;28;20243;-93
2021/04/12 03:56:21;;;;;;;1.17;1.00;;;;;;;;;;4865294;28;20253;-91
2021/04/12 03:58:56;;;;;;;0.80;0.80;;;;;;;;;;4863334;28;20208;-93
2021/04/12 04:01:39;;;;;;;0.77;0.77;;;;;;;;;;4863331;28;20219;-94
2021/04/12 04:04:21;;;;;;;1.13;0.83;;;;;;;;;;4865680;28;20226;-88
2021/04/12 04:07:09;;;;;;;1.07;0.90;;;;;;;;;;4871338;28;20197;-92
2021/04/12 04:09:46;;;;;;;0.80;0.77;;;;;;;;;;4865914;28;20216;-89
2021/04/12 04:12:31;;;;;;;1.10;0.80;;;;;;;;;;4896227;28;20676;-90
2021/04/12 04:15:19;;;;;;;0.77;0.60;;;;;;;;;;4905821;28;20206;-93
2021/04/12 04:18:13;;;;;;;0.80;0.80;;;;;;;;;;4878153;28;20186;-90
2021/04/12 04:20:53;;;;;;;1.10;0.80;;;;;;;;;;4871491;28;20193;-92
2021/04/12 04:23:33;;;;;;;1.53;0.70;;;;;;;;;;4871680;28;20220;-88
2021/04/12 04:26:13;;;;;;;1.17;0.80;;;;;;;;;;4900398;28;20220;-93
2021/04/12 04:29:02;;;;;;;0.70;0.70;;;;;;;;;;4880586;28;20198;-92
2021/04/12 04:31:41;;;;;;;0.60;0.60;;;;;;;;;;4876939;28;20247;-92
2021/04/12 04:34:22;;;;;;;1.63;1.00;;;;;;;;;;4909908;28;20228;-91
2021/04/12 04:37:25;;;;;;;1.80;0.90;;;;;;;;;;4874472;28;20227;-90
2021/04/12 04:40:02;;;;;;;0.70;0.70;;;;;;;;;;4891545;28;20195;-95
2021/04/12 04:42:48;;;;;;;0.77;0.70;;;;;;;;;;4873835;28;20203;-91
2021/04/12 04:45:47;;;;;;;0.57;0.57;;;;;;;;;;4880681;28;20217;-89
2021/04/12 04:48:40;;;;;;;0.87;0.87;;;;;;;;;;4908031;28;20216;-94
2021/04/12 04:51:24;;;;;;;1.27;0.70;;;;;;;;;;4927301;28;20228;-90
2021/04/12 04:54:35;;;;;;;1.20;0.70;;;;;;;;;;4872128;29;20236;-92
2021/04/12 04:57:14;;;;;;;0.70;0.70;;;;;;;;;;4872886;29;20198;-90
2021/04/12 04:59:59;;;;;;;0.70;0.70;;;;;;;;;;4871802;29;20213;-90
2021/04/12 05:02:45;;;;;;;1.13;0.80;;;;;;;;;;4870858;29;20202;-91
2021/04/12 05:05:33;;;;;;;0.80;0.80;;;;;;;;;;4870972;29;20256;-91
2021/04/12 05:08:22;;;;;;;0.80;0.70;;;;;;;;;;4868468;29;20222;-90
2021/04/12 05:11:23;;;;;;;1.03;0.70;;;;;;;;;;4871397;29;20211;-90
2021/04/12 05:14:11;;;;;;;0.80;0.80;;;;;;;;;;4856642;29;20232;-90
2021/04/12 05:16:50;;;;;;;0.80;0.80;;;;;;;;;;4873020;29;20196;-91
2021/04/12 05:19:46;;;;;;;0.80;0.80;;;;;;;;;;4858372;29;20207;-90
2021/04/12 05:22:28;;;;;;;0.70;0.70;;;;;;;;;;4873366;29;20212;-90
2021/04/12 05:25:24;;;;;;;0.57;0.53;;;;;;;;;;4873149;29;20202;-91
2021/04/12 05:28:12;;;;;;;0.80;0.80;;;;;;;;;;4851714;29;20210;-92
2021/04/12 05:31:01;;;;;;;0.67;0.67;;;;;;;;;;4857959;29;20207;-90
2021/04/12 05:33:43;;;;;;;0.70;0.70;;;;;;;;;;4860148;29;20231;-91
2021/04/12 05:36:24;;;;;;;0.70;0.70;;;;;;;;;;4876483;29;20205;-91
2021/04/12 05:39:08;;;;;;;1.00;0.80;;;;;;;;;;4875965;29;20202;-89
2021/04/12 05:41:53;;;;;;;0.60;0.60;;;;;;;;;;4863205;29;20224;-92
2021/04/12 05:44:45;;;;;;;0.97;0.80;;;;;;;;;;4877023;29;20227;-91
2021/04/12 05:47:56;;;;;;;0.63;0.60;;;;;;;;;;4882727;28;20237;-94
2021/04/12 05:50:50;;;;;;;0.70;0.70;;;;;;;;;;4892167;29;20202;-94
2021/04/12 05:53:48;;;;;;;0.97;0.80;;;;;;;;;;4885849;29;20229;-94
2021/04/12 05:56:29;;;;;;;0.77;0.63;;;;;;;;;;4912903;29;20196;-94
2021/04/12 05:59:09;;;;;;;0.87;0.87;;;;;;;;;;4867741;28;20206;-93
2021/04/12 06:01:49;;;;;;;0.70;0.70;;;;;;;;;;4865819;28;20539;-90
2021/04/12 06:04:27;;;;;;;1.10;1.00;;;;;;;;;;4882016;28;20240;-93
2021/04/12 06:07:27;;;;;;;1.00;0.90;;;;;;;;;;4881267;29;20207;-92
2021/04/12 06:10:17;;;;;;;0.80;0.80;;;;;;;;;;4863595;28;20197;-93
2021/04/12 06:13:10;;;;;;;1.00;1.00;;;;;;;;;;4864528;29;20233;-95
2021/04/12 06:16:07;;;;;;;0.90;0.90;;;;;;;;;;4877696;29;20227;-93
2021/04/12 06:18:54;;;;;;;0.90;0.90;;;;;;;;;;4868246;28;20201;-93
2021/04/12 06:21:48;;;;;;;1.07;1.03;;;;;;;;;;4882983;28;20200;-94
2021/04/12 06:24:58;;;;;;;2.00;1.10;;;;;;;;;;4882521;28;20216;-91
2021/04/12 06:28:19;;;;;;;1.10;1.00;;;;;;;;;;4869762;28;20231;-91
2021/04/12 06:31:04;;;;;;;0.93;0.93;;;;;;;;;;4803533;29;20254;-92
2021/04/12 06:33:47;;;;;;;1.47;1.37;;;;;;;;;;4874650;28;20214;-95
2021/04/12 06:36:19;;;;;;;1.40;1.30;;;;;;;;;;4881942;28;20208;-93
2021/04/12 06:39:13;;;;;;;0.93;0.93;;;;;;;;;;4866870;28;20202;-95
2021/04/12 06:42:22;;;;;;;0.90;0.90;;;;;;;;;;4869764;28;20240;-93
2021/04/12 06:45:15;;;;;;;1.00;0.90;;;;;;;;;;4864009;28;20189;-93
2021/04/12 06:48:41;;;;;;;1.17;1.07;;;;;;;;;;4878811;28;20213;-94
2021/04/12 06:51:55;;;;;;;1.30;0.93;;;;;;;;;;4881591;28;20208;-91
2021/04/12 06:54:50;;;;;;;1.10;1.00;;;;;;;;;;4859814;28;20230;-93
2021/04/12 06:57:59;;;;;;;0.90;0.90;;;;;;;;;;4862818;28;20214;-94
2021/04/12 07:01:05;;;;;;;1.33;1.10;;;;;;;;;;4865326;28;20228;-94
2021/04/12 07:04:12;;;;;;;1.30;1.10;;;;;;;;;;4870683;28;20218;-92
2021/04/12 07:06:44;;;;;;;1.23;0.90;;;;;;;;;;4867007;28;20210;-95
2021/04/12 07:09:33;;;;;;;1.00;0.90;;;;;;;;;;4894881;28;20190;-94
2021/04/12 07:12:16;;;;;;;1.20;1.10;;;;;;;;;;4882368;28;20197;-95
2021/04/12 07:15:16;;;;;;;1.77;1.10;;;;;;;;;;4881697;28;20205;-94
2021/04/12 07:18:23;;;;;;;1.43;1.00;;;;;;;;;;4881794;28;20205;-95
2021/04/12 07:21:22;;;;;;;1.27;1.10;;;;;;;;;;4867026;28;20254;-95
2021/04/12 07:24:33;;;;;;;1.97;1.00;;;;;;;;;;4845061;28;20226;-94
2021/04/12 07:27:17;;;;;;;0.97;0.93;;;;;;;;;;4887492;28;20215;-94
2021/04/12 07:30:22;;;;;;;1.23;1.03;;;;;;;;;;4857494;28;20213;-93
2021/04/12 07:33:13;;;;;;;2.43;1.20;;;;;;;;;;4881683;28;20742;-93
2021/04/12 07:36:15;;;;;;;1.30;1.20;;;;;;;;;;4881825;28;20186;-94
2021/04/12 07:39:32;;;;;;;1.37;1.07;;;;;;;;;;4882198;28;20189;-94
2021/04/12 07:42:21;;;;;;;2.37;2.17;;;;;;;;;;4881338;28;20191;-93
2021/04/12 07:45:54;;;;;;;2.30;1.47;;;;;;;;;;4880912;28;20182;-92
2021/04/12 07:49:22;;;;;;;2.17;1.33;;;;;;;;;;4856386;28;20216;-94
2021/04/12 07:52:38;;;;;;;1.80;1.20;;;;;;;;;;4812404;28;20190;-94
2021/04/12 07:55:25;;;;;;;1.83;1.47;;;;;;;;;;4832459;28;20190;-94
2021/04/12 07:58:25;;;;;;;1.40;1.27;;;;;;;;;;4864309;28;20219;-93
2021/04/12 08:01:23;;;;;;;2.20;1.20;;;;;;;;;;4862186;28;20218;-96
2021/04/12 08:04:26;;;;;;;1.87;1.67;;;;;;;;;;4863132;28;20235;-91
2021/04/12 08:07:44;;;;;;;1.30;1.20;;;;;;;;;;4846042;29;20226;-89
2021/04/12 08:11:21;;;;;;;1.70;1.47;;;;;;;;;;4803665;29;20197;-91
2021/04/12 08:14:43;;;;;;;1.63;1.53;;;;;;;;;;4745861;30;20234;-91
2021/04/12 08:18:03;;;;;;;1.93;1.40;;;;;;;;;;4814052;29;20209;-89
2021/04/12 08:21:11;;;;;;;1.30;1.20;;;;;;;;;;4843458;29;20215;-93
2021/04/12 08:24:07;;;;;;;2.90;1.60;;;;;;;;;;4863560;29;20214;-90
2021/04/12 08:27:02;;;;;;;1.43;1.33;;;;;;;;;;4852296;29;20248;-89
2021/04/12 08:30:03;;;;;;;1.30;1.20;;;;;;;;;;4854153;29;20237;-88
2021/04/12 08:33:00;;;;;;;3.23;1.60;;;;;;;;;;4860054;29;20492;-89
2021/04/12 08:35:55;;;;;;;3.27;1.90;;;;;;;;;;4869790;29;20248;-91
2021/04/12 08:39:03;;;;;;;2.37;1.80;;;;;;;;;;4867684;28;20202;-91
2021/04/12 08:41:40;;;;;;;2.53;1.60;;;;;;;;;;4848179;29;20226;-86
2021/04/12 08:44:15;;;;;;;2.30;2.10;;;;;;;;;;4846092;29;20256;-88
2021/04/12 08:46:55;;;;;;;2.00;1.90;;;;;;;;;;4861919;29;20712;-87
2021/04/12 08:49:58;;;;;;;2.07;1.97;;;;;;;;;;4883824;29;20206;-85
2021/04/12 08:52:55;;;;;;;2.50;2.30;;;;;;;;;;4857621;29;20214;-90
2021/04/12 08:55:54;;;;;;;2.30;2.00;;;;;;;;;;4862252;29;20202;-90
2021/04/12 08:58:42;;;;;;;2.93;2.30;;;;;;;;;;4830733;29;20597;-92
2021/04/12 09:01:54;;;;;;;2.60;2.40;;;;;;;;;;4850554;29;20215;-91
2021/04/12 09:05:00;;;;;;;2.73;2.30;;;;;;;;;;4853239;29;20226;-88
2021/04/12 09:07:51;;;;;;;3.07;2.20;;;;;;;;;;4877751;28;20229;-90
2021/04/12 09:10:43;;;;;;;3.10;2.80;;;;;;;;;;4865105;28;20217;-94
2021/04/12 09:13:52;;;;;;;2.70;2.50;;;;;;;;;;4895663;28;20248;-94
2021/04/12 09:16:28;;;;;;;3.50;2.10;;;;;;;;;;4867088;28;20220;-93
2021/04/12 09:19:31;;;;;;;2.27;2.17;;;;;;;;;;4862762;28;20214;-93
2021/04/12 09:22:39;;;;;;;2.40;2.20;;;;;;;;;;4881412;28;20213;-95
2021/04/12 09:25:38;;;;;;;2.40;2.30;;;;;;;;;;4880700;28;20240;-91
2021/04/12 09:28:21;;;;;;;2.73;2.53;;;;;;;;;;4885174;28;20227;-90
2021/04/12 09:31:16;;;;;;;2.50;2.27;;;;;;;;;;4852969;29;20222;-92
2021/04/12 09:34:10;;;;;;;2.80;2.37;;;;;;;;;;4860298;29;20234;-91
2021/04/12 09:37:04;;;;;;;2.20;2.10;;;;;;;;;;4848870;29;20205;-90
2021/04/12 09:39:42;;;;;;;2.73;2.03;;;;;;;;;;4847432;29;20242;-91
2021/04/12 09:42:45;;;;;;;2.60;2.40;;;;;;;;;;4852932;29;20215;-89
2021/04/12 09:45:29;;;;;;;2.17;2.07;;;;;;;;;;4853157;29;20241;-90
2021/04/12 09:48:14;;;;;;;2.20;2.10;;;;;;;;;;4864885;29;20246;-92
2021/04/12 09:50:58;;;;;;;2.30;2.10;;;;;;;;;;4875763;29;20221;-93
2021/04/12 09:53:48;;;;;;;2.93;1.83;;;;;;;;;;4862599;29;20226;-90
2021/04/12 09:56:59;;;;;;;2.53;1.70;;;;;;;;;;4856793;29;20235;-89
2021/04/12 09:59:44;;;;;;;2.40;2.20;;;;;;;;;;4835704;29;20211;-90
2021/04/12 10:02:47;;;;;;;2.40;2.20;;;;;;;;;;4841407;29;20227;-88
2021/04/12 10:05:37;;;;;;;2.50;2.30;;;;;;;;;;4832194;29;20244;-90
2021/04/12 10:08:19;;;;;;;2.53;2.33;;;;;;;;;;4843565;29;20230;-92
2021/04/12 10:10:58;;;;;;;3.47;2.40;;;;;;;;;;4868686;29;20251;-87
2021/04/12 10:13:42;;;;;;;2.63;2.37;;;;;;;;;;4865916;29;20230;-86
2021/04/12 10:16:27;;;;;;;2.70;2.47;;;;;;;;;;4870321;29;20199;-86
2021/04/12 10:19:07;;;;;;;2.73;2.20;;;;;;;;;;4874562;29;20199;-88
2021/04/12 10:21:44;;;;;;;2.67;2.17;;;;;;;;;;4856863;29;20196;-89
2021/04/12 10:24:23;;;;;;;2.53;2.33;;;;;;;;;;4870087;29;20237;-90
2021/04/12 10:26:58;;;;;;;2.30;2.10;;;;;;;;;;4856593;29;20230;-90
2021/04/12 10:29:39;;;;;;;2.57;2.20;;;;;;;;;;4880999;28;20216;-91
2021/04/12 10:32:25;;;;;;;3.37;2.53;;;;;;;;;;4862947;28;20209;-95
2021/04/12 10:38:11;;;;;;;2.70;2.50;;;;;;;;;;4847100;29;20197;-93
2021/04/12 10:40:45;;;;;;;2.80;2.40;;;;;;;;;;4863439;28;20211;-93
2021/04/12 10:43:36;;;;;;;4.80;3.10;;;;;;;;;;4847909;28;20227;-94
2021/04/12 10:46:21;;;;;;;3.17;2.87;;;;;;;;;;4845007;29;20209;-90
2021/04/12 10:48:54;;;;;;;3.13;2.43;;;;;;;;;;4845027;29;20229;-93
2021/04/12 10:51:31;;;;;;;2.60;2.40;;;;;;;;;;4859592;29;20205;-92
2021/04/12 10:54:57;;;;;;;3.67;2.50;;;;;;;;;;4848276;29;20245;-93
2021/04/12 10:57:41;;;;;;;2.97;2.50;;;;;;;;;;4847181;28;20191;-94
2021/04/12 11:00:21;;;;;;;3.23;2.63;;;;;;;;;;4847626;29;20210;-93
2021/04/12 11:03:17;;;;;;;2.67;2.43;;;;;;;;;;4843908;29;20230;-93
2021/04/12 11:06:11;;;;;;;2.87;2.50;;;;;;;;;;4840966;29;20217;-93
2021/04/12 11:08:46;;;;;;;4.40;2.83;;;;;;;;;;4852966;29;20234;-93
2021/04/12 11:11:18;;;;;;;3.27;2.60;;;;;;;;;;4839138;29;20642;-89
2021/04/12 11:13:49;;;;;;;2.70;2.43;;;;;;;;;;4837626;29;20224;-92
2021/04/12 11:16:20;;;;;;;2.83;2.53;;;;;;;;;;4852247;29;20214;-93
2021/04/12 11:19:16;;;;;;;3.07;2.50;;;;;;;;;;4839685;29;20195;-93
2021/04/12 11:21:53;;;;;;;3.00;2.70;;;;;;;;;;4837177;29;20212;-93
2021/04/12 11:24:29;;;;;;;3.00;2.70;;;;;;;;;;4841779;29;20234;-91
2021/04/12 11:27:31;;;;;;;4.23;3.30;;;;;;;;;;4855735;29;20202;-92
2021/04/12 11:30:06;;;;;;;3.70;2.77;;;;;;;;;;4843232;29;20191;-93
2021/04/12 11:33:11;;;;;;;3.13;2.70;;;;;;;;;;4862714;28;20201;-93
2021/04/12 11:35:57;;;;;;;4.93;3.10;;;;;;;;;;4863058;28;20201;-92
2021/04/12 11:38:33;;;;;;;3.43;2.83;;;;;;;;;;4864017;28;20196;-96
2021/04/12 11:41:14;;;;;;;2.70;2.50;;;;;;;;;;4847893;29;20187;-93
2021/04/12 11:48:14;;;;;;;3.33;2.80;;;;;;;;;;4780743;28;20749;-84
2021/04/12 11:50:45;;;;;;;3.47;2.67;;;;;;;;;;4771361;28;20229;-84
2021/04/12 11:53:21;;;;;;;4.77;3.23;;;;;;;;;;4760732;28;20243;-83
2021/04/12 11:55:56;;;;;;;3.47;3.17;;;;;;;;;;4748816;28;20772;-80
2021/04/12 11:58:28;;;;;;;3.40;2.70;;;;;;;;;;4738663;28;20629;-82
2021/04/12 12:01:03;;;;;;;3.80;2.43;;;;;;;;;;4723226;28;20781;-83
2021/04/12 12:03:40;;;;;;;3.20;2.90;;;;;;;;;;4715254;28;20272;-82
2021/04/12 12:06:16;;;;;;;3.30;3.00;;;;;;;;;;4719591;28;21397;-82
2021/04/12 12:08:56;;;;;;;2.83;2.53;;;;;;;;;;4714526;28;20291;-82
2021/04/12 12:11:32;;;;;;;3.50;3.17;;;;;;;;;;4711198;28;21286;-82
2021/04/12 12:14:06;;;;;;;4.10;3.33;;;;;;;;;;4739634;28;20673;-84
2021/04/12 12:16:35;;;;;;;3.70;3.30;;;;;;;;;;4750876;28;20266;-86
2021/04/12 12:19:12;;;;;;;3.73;2.93;;;;;;;;;;4705615;28;20365;-82
2021/04/12 12:21:46;;;;;;;3.50;2.80;;;;;;;;;;4716878;28;20807;-84
2021/04/12 12:24:18;;;;;;;3.50;3.17;;;;;;;;;;4715974;28;20384;-83
2021/04/12 12:26:53;;;;;;;4.67;3.33;;;;;;;;;;4727398;28;21288;-83
2021/04/12 12:29:26;;;;;;;3.30;2.90;;;;;;;;;;4699768;28;20396;-81
2021/04/12 12:32:09;;;;;;;3.60;3.30;;;;;;;;;;4719639;28;21885;-80
2021/04/12 12:34:49;;;;;;;3.53;2.53;;;;;;;;;;4700765;29;20238;-84
2021/04/12 12:37:27;;;;;;;3.20;2.73;;;;;;;;;;4713578;29;20269;-81
2021/04/12 12:39:57;;;;;;;3.50;3.20;;;;;;;;;;4708327;28;20966;-79
2021/04/12 12:42:27;;;;;;;4.00;3.23;;;;;;;;;;4694003;29;20322;-79
2021/04/12 12:45:02;;;;;;;3.80;3.40;;;;;;;;;;4702228;28;20242;-83
2021/04/12 12:47:32;;;;;;;3.43;3.10;;;;;;;;;;4717242;28;20836;-82
2021/04/12 12:50:02;;;;;;;3.30;3.00;;;;;;;;;;4756058;28;20350;-86
2021/04/12 12:52:33;;;;;;;4.10;3.40;;;;;;;;;;4761151;28;21146;-81
2021/04/12 12:55:04;;;;;;;3.17;2.87;;;;;;;;;;4737855;28;20263;-81
2021/04/12 12:57:34;;;;;;;4.83;3.40;;;;;;;;;;4722274;28;20602;-81
2021/04/12 13:00:15;;;;;;;4.57;3.37;;;;;;;;;;4748124;28;20920;-81
2021/04/12 13:02:43;;;;;;;3.90;2.80;;;;;;;;;;4732217;28;20834;-83
2021/04/12 13:05:17;;;;;;;3.87;3.23;;;;;;;;;;4732727;28;22732;-84
2021/04/12 13:07:48;;;;;;;3.27;2.87;;;;;;;;;;4750676;28;25796;-81
2021/04/12 13:10:33;;;;;;;3.37;2.97;;;;;;;;;;4735999;28;20323;-83
2021/04/12 13:13:01;;;;;;;6.33;3.60;;;;;;;;;;4734642;28;20257;-82
2021/04/12 13:15:33;;;;;;;3.57;3.00;;;;;;;;;;4762556;28;20292;-82
2021/04/12 13:18:08;;;;;;;3.83;2.70;;;;;;;;;;4762746;28;20248;-82
2021/04/12 13:20:40;;;;;;;2.83;2.63;;;;;;;;;;4826846;28;20246;-82
2021/04/12 13:23:17;;;;;;;4.50;3.13;;;;;;;;;;4888694;28;20712;-78
2021/04/12 13:25:47;;;;;;;2.90;2.33;;;;;;;;;;4868223;28;20230;-78
2021/04/12 13:28:18;;;;;;;4.97;3.27;;;;;;;;;;4852595;28;22992;-81
2021/04/12 13:30:58;;;;;;;4.27;2.90;;;;;;;;;;4860894;28;20225;-78
2021/04/12 13:33:30;;;;;;;4.50;3.50;;;;;;;;;;4875773;28;20618;-78
2021/04/12 13:36:03;;;;;;;5.07;3.70;;;;;;;;;;4865762;28;20241;-78
2021/04/12 13:38:33;;;;;;;5.07;3.97;;;;;;;;;;4849972;28;20230;-82
2021/04/12 13:41:07;;;;;;;4.37;3.67;;;;;;;;;;4870346;28;20244;-79
2021/04/12 13:43:37;;;;;;;3.73;3.27;;;;;;;;;;4868657;28;20727;-82
2021/04/12 13:46:10;;;;;;;4.93;3.40;;;;;;;;;;4854200;28;20246;-78
2021/04/12 13:48:39;;;;;;;4.27;3.60;;;;;;;;;;4852853;28;20237;-79
2021/04/12 13:51:09;;;;;;;3.73;3.30;;;;;;;;;;4751628;28;20964;-81
2021/04/12 13:53:46;;;;;;;5.47;3.30;;;;;;;;;;4735485;28;20356;-81
2021/04/12 13:56:17;;;;;;;4.43;3.60;;;;;;;;;;4735109;28;21510;-79
2021/04/12 13:58:48;;;;;;;5.30;4.10;;;;;;;;;;4749336;28;21871;-83
2021/04/12 14:01:17;;;;;;;6.83;4.40;;;;;;;;;;4728683;28;20652;-83
2021/04/12 14:03:57;;;;;;;11.80;8.67;;;;;;;;;;4714214;29;20325;-84
2021/04/12 14:06:27;;;;;;;4.13;3.50;;;;;;;;;;4736840;28;20294;-80
2021/04/12 14:08:59;;;;;;;3.70;3.23;;;;;;;;;;4707531;28;21014;-85
2021/04/12 14:11:34;;;;;;;4.97;4.00;;;;;;;;;;4734159;28;20271;-82
2021/04/12 14:14:06;;;;;;;7.17;4.30;;;;;;;;;;4736927;28;20543;-85
2021/04/12 14:16:37;;;;;;;5.27;3.70;;;;;;;;;;4727094;28;20354;-82
2021/04/12 14:19:11;;;;;;;3.83;3.43;;;;;;;;;;4724047;29;20355;-84
2021/04/12 14:21:41;;;;;;;4.43;3.33;;;;;;;;;;4723286;28;20332;-84
2021/04/12 14:24:12;;;;;;;5.50;3.40;;;;;;;;;;4721994;28;25179;-82
2021/04/12 14:26:43;;;;;;;6.20;3.93;;;;;;;;;;4713475;28;21369;-85
2021/04/12 14:29:22;;;;;;;4.87;3.90;;;;;;;;;;4719218;28;20328;-82
2021/04/12 14:31:51;;;;;;;4.83;3.70;;;;;;;;;;4709518;28;20300;-81
2021/04/12 14:34:24;;;;;;;4.97;3.27;;;;;;;;;;4721271;28;20265;-83
2021/04/12 14:36:52;;;;;;;3.67;3.37;;;;;;;;;;4736250;28;20354;-83
2021/04/12 14:39:25;;;;;;;5.80;3.60;;;;;;;;;;4728535;28;20633;-82
2021/04/12 14:41:58;;;;;;;4.90;3.87;;;;;;;;;;4758650;28;20864;-84
2021/04/12 14:44:30;;;;;;;3.77;3.40;;;;;;;;;;4777787;28;20588;-87
2021/04/12 14:46:59;;;;;;;3.27;2.97;;;;;;;;;;4756589;28;20401;-84
2021/04/12 14:49:32;;;;;;;3.83;2.93;;;;;;;;;;4746580;28;20371;-87
2021/04/12 14:52:10;;;;;;;4.93;3.30;;;;;;;;;;4734588;28;24868;-83
2021/04/12 14:54:41;;;;;;;3.80;3.50;;;;;;;;;;4734134;28;20691;-86
2021/04/12 14:57:17;;;;;;;3.50;3.03;;;;;;;;;;4717721;29;20940;-85
2021/04/12 14:59:48;;;;;;;3.87;3.13;;;;;;;;;;4721445;29;20456;-86
2021/04/12 15:02:24;;;;;;;3.87;3.33;;;;;;;;;;4720585;29;21027;-82
2021/04/12 15:04:58;;;;;;;4.27;3.47;;;;;;;;;;4744267;28;21250;-83
2021/04/12 15:07:37;;;;;;;3.80;3.50;;;;;;;;;;4727708;28;20402;-85
2021/04/12 15:10:07;;;;;;;3.43;3.13;;;;;;;;;;4741024;28;20352;-84
2021/04/12 15:12:36;;;;;;;3.77;3.47;;;;;;;;;;4743342;28;20925;-83
2021/04/12 15:15:08;;;;;;;3.73;3.33;;;;;;;;;;4738083;29;20244;-82
2021/04/12 15:17:39;;;;;;;4.67;3.53;;;;;;;;;;4752136;29;20248;-86
2021/04/12 15:20:11;;;;;;;3.50;3.13;;;;;;;;;;4774591;28;20237;-86
2021/04/12 15:22:42;;;;;;;4.70;3.33;;;;;;;;;;4765761;28;20786;-82
2021/04/12 15:25:17;;;;;;;4.10;3.47;;;;;;;;;;4786245;28;20819;-83
2021/04/12 15:28:01;;;;;;;4.40;3.50;;;;;;;;;;4757439;28;20244;-85
2021/04/12 15:30:30;;;;;;;4.10;3.70;;;;;;;;;;4768713;28;20285;-82
2021/04/12 15:33:06;;;;;;;5.47;3.83;;;;;;;;;;4771360;28;20226;-85
2021/04/12 15:35:37;;;;;;;7.17;3.23;;;;;;;;;;4755390;28;20781;-84
2021/04/12 15:38:12;;;;;;;3.50;3.20;;;;;;;;;;4748447;28;20289;-81
2021/04/12 15:40:46;;;;;;;5.57;3.83;;;;;;;;;;4745155;29;20753;-83
2021/04/12 15:43:18;;;;;;;5.40;3.50;;;;;;;;;;4761172;28;20264;-85
2021/04/12 15:45:58;;;;;;;5.97;3.63;;;;;;;;;;4745830;28;20265;-83
2021/04/12 15:48:29;;;;;;;4.30;3.67;;;;;;;;;;4769763;28;20229;-85
2021/04/12 15:51:04;;;;;;;4.23;3.33;;;;;;;;;;4779629;29;20237;-82
2021/04/12 15:53:33;;;;;;;4.50;3.60;;;;;;;;;;4761153;28;20414;-84
2021/04/12 15:56:04;;;;;;;4.27;3.50;;;;;;;;;;4737378;28;20342;-86
2021/04/12 15:58:34;;;;;;;5.10;3.77;;;;;;;;;;4739496;28;25171;-80
2021/04/12 16:01:08;;;;;;;5.30;3.80;;;;;;;;;;4735174;28;21736;-82
2021/04/12 16:03:45;;;;;;;5.43;3.80;;;;;;;;;;4739365;29;20725;-81
2021/04/12 16:06:14;;;;;;;3.83;3.43;;;;;;;;;;4750199;29;20261;-80
2021/04/12 16:08:45;;;;;;;4.10;3.70;;;;;;;;;;4732944;29;20282;-82
2021/04/12 16:11:16;;;;;;;4.47;3.90;;;;;;;;;;4743318;28;20418;-79
2021/04/12 16:13:48;;;;;;;11.03;8.07;;;;;;;;;;4757711;28;20271;-84
2021/04/12 16:16:22;;;;;;;5.17;4.00;;;;;;;;;;4741776;28;20598;-85
2021/04/12 16:18:53;;;;;;;4.10;3.67;;;;;;;;;;4729724;28;20872;-85
2021/04/12 16:21:42;;;;;;;4.07;3.47;;;;;;;;;;4737897;28;20261;-86
2021/04/12 16:24:16;;;;;;;4.13;3.67;;;;;;;;;;4728580;28;20324;-83
2021/04/12 16:27:00;;;;;;;4.30;3.90;;;;;;;;;;4721248;28;20332;-82
2021/04/12 16:29:37;;;;;;;4.17;3.50;;;;;;;;;;4715825;28;20839;-82
2021/04/12 16:32:07;;;;;;;3.50;3.20;;;;;;;;;;4777143;28;20266;-86